NMSU Main Campus

April 5, 2020, 11:05 a.m.

  • imperial
Air Temperature RH Dewpoint Wind Chill Heat Index Wind Speed Wind Direction Precipitation Solar Radiation Soil Temperature
Date Time Max Mean Mean Total Total
US/Mountain F % F F F MPH MPH MPH deg. deg. in. MJ/m^2 F
2020-04-04 11:05 68.02 28.84 34.43 68.02 68.02 3.31 3.31 2.48 320.1 280.3 0.0 0.235 63.61
2020-04-04 11:10 67.84 25.7 31.4 67.84 67.84 3.31 5.28 3.24 156.6 147.5 0.0 0.238 63.72
2020-04-04 11:15 68.94 25.3 31.95 68.94 68.94 2.95 3.85 2.55 95.4 51.0 0.0 0.242 63.86
2020-04-04 11:20 68.99 25.84 32.52 68.99 68.99 5.1 5.1 3.09 229.9 21.9 0.0 0.245 64.04
2020-04-04 11:25 69.48 23.58 30.66 69.48 69.48 2.42 5.28 2.82 300.3 251.2 0.0 0.247 64.17
2020-04-04 11:30 70.57 25.74 33.77 70.57 70.57 4.03 5.1 2.46 144.8 10.8 0.0 0.251 64.33
2020-04-04 11:35 69.89 23.41 30.83 69.89 69.89 3.31 7.25 4.59 311.7 242.9 0.0 0.253 64.49
2020-04-04 11:40 69.84 24.12 31.53 69.84 69.84 3.49 7.07 4.38 261.4 254.2 0.0 0.256 64.65
2020-04-04 11:45 70.3 19.12 26.23 70.3 70.3 2.59 6.71 3.71 158.7 159.9 0.0 0.258 64.81
2020-04-04 11:50 71.89 15.89 23.08 71.89 71.89 2.59 6.17 3.27 74.0 162.7 0.0 0.261 64.99
2020-04-04 11:55 72.18 15.01 21.96 72.18 72.18 5.28 6.71 3.83 222.7 214.3 0.0 0.264 65.16
2020-04-04 12:00 71.94 14.74 21.34 71.94 71.94 5.64 8.86 5.15 233.0 223.5 0.0 0.267 65.34
2020-04-04 12:05 72.12 14.8 21.58 72.12 72.12 6.35 10.27 6.24 241.1 227.8 0.0 0.269 65.52
2020-04-04 12:10 72.18 15.24 22.32 72.18 72.18 8.3 8.86 5.7 258.9 204.4 0.0 0.27 65.68
2020-04-04 12:15 72.28 15.68 23.08 72.28 72.28 8.3 11.16 7.07 206.1 236.8 0.0 0.271 65.86
2020-04-04 12:20 71.92 15.01 21.76 71.92 71.92 1.52 8.12 5.91 281.1 229.3 0.0 0.272 66.04
2020-04-04 12:25 72.1 15.34 22.42 72.1 72.1 7.78 10.8 6.85 237.5 252.5 0.0 0.275 66.22
2020-04-04 12:30 72.66 18.45 27.3 72.66 72.66 2.77 9.57 5.77 253.3 223.5 0.0 0.276 66.4
2020-04-04 12:35 72.66 16.08 23.99 72.66 72.66 4.21 10.27 6.85 218.2 210.8 0.0 0.277 66.58
2020-04-04 12:40 72.66 15.14 22.55 72.66 72.66 4.56 12.42 6.2 256.0 239.3 0.0 0.277 66.78
2020-04-04 12:45 73.33 14.13 21.45 73.33 73.33 8.12 8.12 4.23 271.4 259.7 0.0 0.279 66.94
2020-04-04 12:50 74.12 14.23 22.25 74.12 74.12 7.61 10.63 6.31 241.6 240.4 0.0 0.279 67.15
2020-04-04 12:55 74.05 14.06 21.9 74.05 74.05 5.1 9.57 6.17 219.0 227.0 0.0 0.277 67.32
2020-04-04 13:00 74.05 14.26 22.24 74.05 74.05 9.91 9.91 4.54 264.0 232.6 0.0 0.282 67.5
2020-04-04 13:05 73.56 14.77 22.69 73.56 73.56 7.07 13.49 8.43 235.7 258.7 0.0 0.281 67.66
2020-04-04 13:10 73.74 15.41 23.84 73.74 73.74 7.25 8.86 5.57 225.5 223.1 0.0 0.278 67.86
2020-04-04 13:15 74.23 13.15 20.47 74.23 74.23 8.68 14.92 8.34 237.2 224.5 0.0 0.282 68.04
2020-04-04 13:20 73.15 14.57 22.03 73.15 73.15 7.96 11.88 7.54 242.8 217.6 0.0 0.281 68.23
2020-04-04 13:25 74.3 13.72 21.52 74.3 74.3 7.25 9.4 3.74 191.5 240.2 0.0 0.28 68.4
2020-04-04 13:30 75.51 14.26 23.4 75.51 75.51 7.43 10.98 7.2 279.8 239.6 0.0 0.28 68.58
2020-04-04 13:35 75.43 15.51 25.35 75.43 75.43 6.53 9.91 6.89 219.1 228.1 0.0 0.28 68.74
2020-04-04 13:40 75.07 14.77 23.89 75.07 75.07 4.21 8.3 5.68 198.9 213.7 0.0 0.278 68.92
2020-04-04 13:45 75.36 14.06 22.95 75.36 75.36 6.89 7.78 5.35 201.5 227.8 0.0 0.277 69.1
2020-04-04 13:50 75.42 12.98 21.1 75.42 75.42 7.61 9.57 6.35 244.5 228.1 0.0 0.277 69.28
2020-04-04 13:55 75.67 12.74 20.85 75.67 75.67 9.73 9.73 5.41 244.4 212.1 0.0 0.276 69.44
2020-04-04 14:00 75.47 14.02 22.97 75.47 75.47 6.53 12.77 7.61 225.5 247.2 0.0 0.258 69.58
2020-04-04 14:05 75.47 12.51 20.27 75.47 75.47 7.25 10.8 8.17 198.2 225.2 0.0 0.274 69.75
2020-04-04 14:10 74.26 13.75 21.55 74.26 74.26 3.31 9.4 6.67 229.6 224.6 0.0 0.271 69.87
2020-04-04 14:15 75.29 13.79 22.43 75.29 75.29 6.35 7.43 4.25 240.7 214.7 0.0 0.27 70.0
2020-04-04 14:20 75.65 13.72 22.59 75.65 75.65 3.85 9.22 6.26 223.7 217.2 0.0 0.269 70.11
2020-04-04 14:25 75.78 12.37 20.25 75.78 75.78 6.35 11.16 7.05 220.0 242.2 0.0 0.267 70.2
2020-04-04 14:30 75.42 12.41 20.04 75.42 75.42 8.86 11.88 6.53 224.0 240.6 0.0 0.264 70.27
2020-04-04 14:35 76.26 12.3 20.49 76.26 76.26 10.8 10.8 6.69 241.9 243.7 0.0 0.261 70.34
2020-04-04 14:40 76.44 12.78 21.54 76.44 76.44 9.4 11.88 6.91 236.6 204.4 0.0 0.259 70.38
2020-04-04 14:45 76.68 13.85 23.63 76.68 76.68 10.27 10.98 6.15 199.7 203.1 0.0 0.258 70.43
2020-04-04 14:50 76.32 12.44 20.8 76.32 76.32 7.96 11.16 6.46 268.7 235.2 0.0 0.256 70.47
2020-04-04 14:55 75.78 12.1 19.73 75.78 75.78 8.48 14.2 10.42 202.2 225.6 0.0 0.253 70.5
2020-04-04 15:00 75.96 12.54 20.71 75.96 75.96 6.35 10.45 6.11 228.6 219.4 0.0 0.25 70.54
2020-04-04 15:05 76.01 12.47 20.62 76.01 76.01 7.25 13.85 7.34 274.2 245.4 0.0 0.248 70.54
2020-04-04 15:10 75.34 13.45 21.88 75.34 75.34 4.92 12.95 9.46 256.8 251.2 0.0 0.244 70.57
2020-04-04 15:15 76.44 11.97 19.99 76.44 76.44 7.78 9.57 5.53 255.2 257.6 0.0 0.24 70.59
2020-04-04 15:20 76.87 12.51 21.37 76.87 76.87 6.71 10.63 7.56 203.3 233.6 0.0 0.237 70.65
2020-04-04 15:25 76.62 12.94 21.97 76.62 76.62 5.64 11.16 7.16 229.5 223.7 0.0 0.233 70.68
2020-04-04 15:30 76.8 11.93 20.19 76.8 76.8 7.61 12.42 7.45 218.8 223.8 0.0 0.229 70.74
2020-04-04 15:35 75.96 13.55 22.54 75.96 75.96 7.78 11.52 8.55 204.8 201.2 0.0 0.225 70.77
2020-04-04 15:40 76.44 12.34 20.71 76.44 76.44 4.38 10.63 6.67 213.1 199.1 0.0 0.222 70.86
2020-04-04 15:45 76.5 13.52 22.91 76.5 76.5 11.52 11.52 7.56 199.4 205.0 0.0 0.22 70.93
2020-04-04 15:50 76.08 12.41 20.56 76.08 76.08 7.43 10.45 7.2 205.7 206.8 0.0 0.214 71.01
2020-04-04 15:55 77.11 13.72 23.75 77.11 77.11 5.46 9.91 6.17 265.2 222.5 0.0 0.211 71.08
2020-04-04 16:00 76.93 14.6 25.09 76.93 76.93 3.13 11.34 7.34 178.3 226.0 0.0 0.206 71.19
2020-04-04 16:05 76.87 12.34 21.05 76.87 76.87 7.07 10.27 6.2 208.6 210.5 0.0 0.203 71.28
2020-04-04 16:10 76.57 13.25 22.49 76.57 76.57 9.22 11.7 7.85 205.9 215.2 0.0 0.199 71.37
2020-04-04 16:15 76.39 12.24 20.48 76.39 76.39 12.95 12.95 7.76 220.9 211.0 0.0 0.194 71.46
2020-04-04 16:20 76.08 11.83 19.44 76.08 76.08 9.57 11.88 8.99 230.6 235.9 0.0 0.189 71.56
2020-04-04 16:25 76.01 13.15 21.87 76.01 76.01 9.22 12.42 7.4 215.0 219.5 0.0 0.182 71.67
2020-04-04 16:30 77.23 14.09 24.48 77.23 77.23 5.1 9.57 4.38 190.3 182.7 0.0 0.181 71.76
2020-04-04 16:35 76.62 12.03 20.25 76.62 76.62 5.1 16.35 8.43 183.0 221.7 0.0 0.176 71.85
2020-04-04 16:40 76.8 12.03 20.39 76.8 76.8 9.57 13.67 8.43 209.5 208.8 0.0 0.171 71.96
2020-04-04 16:45 77.11 13.35 23.1 77.11 77.11 7.78 10.98 6.08 190.7 207.8 0.0 0.166 72.07
2020-04-04 16:50 76.75 11.76 19.82 76.75 76.75 6.35 14.56 8.93 239.6 240.9 0.0 0.161 72.18
2020-04-04 16:55 76.44 12.1 20.25 76.44 76.44 8.68 15.82 8.41 226.5 233.6 0.0 0.156 72.27
2020-04-04 17:00 76.62 11.7 19.6 76.62 76.62 6.71 11.7 8.39 222.2 234.2 0.0 0.15 72.34
2020-04-04 17:05 76.39 12.37 20.72 76.39 76.39 8.12 10.45 6.98 258.5 241.8 0.0 0.144 72.45
2020-04-04 17:10 76.93 13.52 23.26 76.93 76.93 8.68 17.43 8.59 189.6 194.6 0.0 0.139 72.52
2020-04-04 17:15 76.98 13.05 22.46 76.98 76.98 5.28 8.3 4.9 117.0 171.7 0.0 0.134 72.63
2020-04-04 17:20 76.62 14.19 24.17 76.62 76.62 6.71 7.96 5.1 203.7 176.4 0.0 0.129 72.7
2020-04-04 17:25 76.75 13.96 23.88 76.75 76.75 4.21 7.25 4.56 191.0 193.7 0.0 0.124 72.79
2020-04-04 17:30 77.05 13.15 22.69 77.05 77.05 4.56 6.35 3.76 225.2 194.2 0.0 0.118 72.86
2020-04-04 17:35 76.57 11.36 18.87 76.57 76.57 5.46 11.34 6.4 212.8 219.8 0.0 0.113 72.93
2020-04-04 17:40 76.62 10.62 17.34 76.62 76.62 9.57 10.98 6.44 202.6 235.2 0.0 0.108 73.02
2020-04-04 17:45 76.82 10.05 16.22 76.82 76.82 7.07 9.73 6.4 198.1 209.1 0.0 0.102 73.06
2020-04-04 17:50 76.93 10.69 17.73 76.93 76.93 8.86 8.86 5.53 215.1 217.7 0.0 0.096 73.11
2020-04-04 17:55 76.57 9.64 15.07 76.57 76.57 11.52 13.31 9.53 216.2 223.4 0.0 0.091 73.2
2020-04-04 18:00 76.21 10.32 16.36 76.21 76.21 2.59 10.98 7.27 317.8 229.4 0.0 0.085 73.24
2020-04-04 18:05 76.26 9.98 15.63 76.26 76.26 6.53 12.42 6.76 222.0 216.3 0.0 0.079 73.29
2020-04-04 18:10 76.26 10.08 15.86 76.26 76.26 5.28 8.86 5.84 207.7 222.5 0.0 0.074 73.33
2020-04-04 18:15 76.03 10.96 17.61 76.03 76.03 4.56 8.68 5.32 230.6 209.2 0.0 0.069 73.38
2020-04-04 18:20 76.28 10.82 17.51 76.28 76.28 7.61 10.27 7.54 228.5 224.2 0.0 0.063 73.4
2020-04-04 18:25 75.99 11.46 18.62 75.99 75.99 6.35 10.98 7.11 185.7 221.1 0.0 0.058 73.44
2020-04-04 18:30 75.81 10.52 16.5 75.81 75.81 4.03 8.48 4.88 219.2 212.1 0.0 0.053 73.47
2020-04-04 18:35 75.76 11.26 18.03 75.76 75.76 3.13 6.89 4.3 244.1 217.3 0.0 0.048 73.49
2020-04-04 18:40 75.56 10.76 16.83 75.56 75.56 6.0 8.68 5.77 213.7 210.1 0.0 0.042 73.49
2020-04-04 18:45 75.33 10.79 16.71 75.33 75.33 7.96 13.13 6.91 204.3 224.6 0.0 0.038 73.51
2020-04-04 18:50 74.97 11.26 17.42 74.97 74.97 3.67 9.57 6.53 229.8 227.2 0.0 0.029 73.54
2020-04-04 18:55 75.09 10.93 16.83 75.09 75.09 4.56 6.35 4.59 241.9 232.5 0.0 0.022 73.54
2020-04-04 19:00 74.84 10.99 16.76 74.84 74.84 3.85 7.43 3.89 244.7 217.9 0.0 0.021 73.53
2020-04-04 19:05 74.79 11.47 17.71 74.79 74.79 4.92 6.17 3.98 252.0 222.0 0.0 0.016 73.54
2020-04-04 19:10 73.69 11.73 17.37 73.69 73.69 1.88 6.35 3.67 202.1 216.3 0.0 0.006 73.54
2020-04-04 19:15 73.51 12.78 19.23 73.51 73.51 0.0 4.74 2.48 213.8 214.5 0.0 0.005 73.54
2020-04-04 19:20 72.97 13.32 19.77 72.97 72.97 3.49 4.74 2.84 216.8 209.1 0.0 0.004 73.51
2020-04-04 19:25 72.66 12.78 18.57 72.66 72.66 2.95 5.28 3.13 240.5 235.6 0.0 0.003 73.51
2020-04-04 19:30 72.86 12.75 18.67 72.86 72.86 0.0 5.46 2.82 215.8 228.6 0.0 0.002 73.47
2020-04-04 19:35 72.68 13.29 19.49 72.68 72.68 0.0 2.77 0.74 257.9 227.5 0.0 0.001 73.44
2020-04-04 19:40 72.27 12.89 18.45 72.27 72.27 1.88 3.67 1.61 239.9 242.3 0.0 0.001 73.38
2020-04-04 19:45 71.96 13.16 18.7 71.96 71.96 0.0 3.49 1.92 250.9 228.2 0.0 0.0 73.35
2020-04-04 19:50 71.6 13.7 19.35 71.6 71.6 0.0 0.98 0.16 224.9 216.7 0.0 0.0 73.31
2020-04-04 19:55 71.11 14.81 20.79 71.11 71.11 0.0 0.81 0.09 183.0 198.8 0.0 0.0 73.26
2020-04-04 20:00 70.27 15.11 20.59 70.27 70.27 0.0 0.0 0.0 127.4 0.0 0.0 0.0 73.22
2020-04-04 20:05 69.42 15.42 20.39 69.42 69.42 0.0 0.0 0.0 124.0 0.0 0.0 0.0 73.15
2020-04-04 20:10 68.63 15.96 20.56 68.63 68.63 0.0 0.0 0.0 125.2 0.0 0.0 0.0 73.09
2020-04-04 20:15 67.98 16.26 20.47 67.98 67.98 0.0 0.0 0.0 253.9 0.0 0.0 0.0 73.02
2020-04-04 20:20 68.11 16.84 21.4 68.11 68.11 0.0 1.88 0.27 262.7 270.0 0.0 0.0 72.99
2020-04-04 20:25 69.44 15.02 19.78 69.44 69.44 2.42 6.0 2.8 246.3 254.9 0.0 0.0 72.9
2020-04-04 20:30 69.82 15.52 20.86 69.82 69.82 1.52 7.07 3.11 211.0 249.6 0.0 0.0 72.82
2020-04-04 20:35 69.08 15.66 20.47 69.08 69.08 0.98 3.31 1.63 233.8 249.0 0.0 0.0 72.77
2020-04-04 20:40 68.85 16.16 21.03 68.85 68.85 1.88 2.95 1.21 247.9 260.2 0.0 0.0 72.68
2020-04-04 20:45 68.23 16.67 21.26 68.23 68.23 0.0 2.77 1.52 291.4 282.9 0.0 0.0 72.61
2020-04-04 20:50 67.64 16.5 20.54 67.64 67.64 0.98 1.34 0.27 222.5 258.2 0.0 0.0 72.54
2020-04-04 20:55 67.33 17.61 21.83 67.33 67.33 0.0 1.16 0.27 295.7 252.7 0.0 0.0 72.45
2020-04-04 21:00 66.49 18.32 22.07 66.49 66.49 0.0 0.0 0.0 281.6 0.0 0.0 0.0 72.36
2020-04-04 21:05 65.82 18.39 21.62 65.82 65.82 0.0 0.0 0.0 269.0 0.0 0.0 0.0 72.3
2020-04-04 21:10 65.28 19.84 22.97 65.28 65.28 0.0 0.0 0.0 109.7 0.0 0.0 0.0 72.21
2020-04-04 21:15 64.98 20.76 23.8 64.98 64.98 0.0 1.16 0.31 148.4 110.4 0.0 0.0 72.12
2020-04-04 21:20 64.26 20.35 22.72 64.26 64.26 0.0 0.0 0.0 139.5 0.0 0.0 0.0 72.03
2020-04-04 21:25 63.9 21.23 23.43 63.9 63.9 0.0 0.0 0.0 155.8 0.0 0.0 0.0 71.96
2020-04-04 21:30 63.28 22.14 23.92 63.28 63.28 0.0 1.52 0.34 126.1 129.9 0.0 0.0 71.85
2020-04-04 21:35 63.18 23.86 25.63 63.18 63.18 0.0 1.52 0.49 69.0 117.4 0.0 0.0 71.78
2020-04-04 21:40 62.62 21.87 23.07 62.62 62.62 0.0 0.0 0.0 94.5 0.0 0.0 0.0 71.71
2020-04-04 21:45 62.74 22.28 23.62 62.74 62.74 1.7 2.06 0.67 158.4 104.3 0.0 0.0 71.62
2020-04-04 21:50 62.33 24.1 25.15 62.33 62.33 0.0 2.42 0.65 127.6 182.4 0.0 0.0 71.53
2020-04-04 21:55 62.08 24.68 25.51 62.08 62.08 0.0 1.52 0.74 117.7 119.5 0.0 0.0 71.46
2020-04-04 22:00 61.79 23.56 24.15 61.79 61.79 0.0 1.34 0.27 130.8 93.0 0.0 0.0 71.37
2020-04-04 22:05 61.48 24.27 24.6 61.48 61.48 0.0 0.81 0.04 182.1 92.6 0.0 0.0 71.24
2020-04-04 22:10 61.66 23.6 24.09 61.66 61.66 1.34 2.42 0.78 138.9 162.4 0.0 0.0 71.15
2020-04-04 22:15 61.38 25.05 25.27 61.38 61.38 0.0 1.16 0.31 184.0 158.0 0.0 0.0 71.08
2020-04-04 22:20 61.0 25.66 25.53 61.0 61.0 1.16 2.59 1.28 197.5 184.6 0.0 0.0 70.99
2020-04-04 22:25 60.33 26.67 25.89 60.33 60.33 0.0 2.59 0.74 184.5 170.6 0.0 0.0 70.9
2020-04-04 22:30 60.15 26.94 25.98 60.15 60.15 0.0 1.52 0.25 165.8 84.7 0.0 0.0 70.81
2020-04-04 22:35 60.15 24.92 24.11 60.15 60.15 2.77 3.13 1.32 105.3 136.1 0.0 0.0 70.72
2020-04-04 22:40 60.03 24.51 23.6 60.03 60.03 1.7 2.59 0.87 121.4 128.1 0.0 0.0 70.65
2020-04-04 22:45 60.33 24.21 23.57 60.33 60.33 0.0 1.7 0.56 108.1 129.3 0.0 0.0 70.56
2020-04-04 22:50 60.03 24.71 23.8 60.03 60.03 0.81 1.16 0.22 94.6 86.8 0.0 0.0 70.47
2020-04-04 22:55 60.04 25.53 24.59 60.04 60.04 2.24 3.13 1.36 115.2 106.0 0.0 0.0 70.38
2020-04-04 23:00 60.15 24.99 24.17 60.15 60.15 0.98 2.06 1.21 108.6 84.7 0.0 0.0 70.29
2020-04-04 23:05 60.66 24.01 23.64 60.66 60.66 1.52 4.21 2.1 294.5 177.7 0.0 0.0 70.21
2020-04-04 23:10 60.76 24.01 23.74 60.76 60.76 1.7 1.88 1.07 295.0 264.1 0.0 0.0 70.12
2020-04-04 23:15 60.17 25.32 24.5 60.17 60.17 0.0 2.59 0.54 36.7 261.2 0.0 0.0 70.03
2020-04-04 23:20 60.04 25.02 24.11 60.04 60.04 0.0 1.52 0.49 81.2 45.8 0.0 0.0 69.96
2020-04-04 23:25 59.86 24.18 23.14 59.86 59.86 0.81 1.52 0.4 7.5 353.3 0.0 0.0 69.87
2020-04-04 23:30 59.31 27.18 25.47 59.31 59.31 0.0 0.81 0.09 50.4 322.2 0.0 0.0 69.8
2020-04-04 23:35 59.2 25.73 24.06 59.2 59.2 0.81 2.59 0.83 302.3 295.5 0.0 0.0 69.71
2020-04-04 23:40 59.56 25.46 24.11 59.56 59.56 1.88 3.13 1.25 276.1 283.1 0.0 0.0 69.64
2020-04-04 23:45 60.04 24.28 23.39 60.04 60.04 0.0 4.56 1.83 165.7 209.8 0.0 0.0 69.55
2020-04-04 23:50 59.92 24.85 23.84 59.92 59.92 1.7 3.31 0.96 165.6 184.0 0.0 0.0 69.49
2020-04-04 23:55 60.17 24.38 23.6 60.17 60.17 2.24 5.82 2.55 203.7 199.2 0.0 0.0 69.4
2020-04-05 00:00 60.53 24.75 24.26 60.53 60.53 1.34 3.49 1.9 132.4 159.0 0.0 0.0 69.31
2020-04-05 00:05 60.58 24.31 23.88 60.58 60.58 1.88 4.38 2.06 145.4 212.7 0.0 0.0 69.24
2020-04-05 00:10 61.07 23.16 23.14 61.07 61.07 2.24 7.96 3.13 242.1 215.6 0.0 0.0 69.17
2020-04-05 00:15 61.2 24.24 24.33 61.2 61.2 0.81 3.85 1.61 22.6 240.6 0.0 0.0 69.1
2020-04-05 00:20 61.27 23.6 23.75 61.27 61.27 2.77 5.64 2.71 306.2 284.1 0.0 0.0 69.01
2020-04-05 00:25 61.63 23.27 23.72 61.63 61.63 0.0 2.95 1.34 293.8 328.1 0.0 0.0 68.94
2020-04-05 00:30 61.38 23.94 24.18 61.38 61.38 1.52 5.1 2.51 116.9 43.9 0.0 0.0 68.86
2020-04-05 00:35 61.27 23.91 24.06 61.27 61.27 4.03 5.1 3.18 48.1 25.7 0.0 0.0 68.77
2020-04-05 00:40 60.78 24.31 24.05 60.78 60.78 1.52 4.21 2.39 78.3 60.9 0.0 0.0 68.7
2020-04-05 00:45 60.48 24.78 24.25 60.48 60.48 3.49 3.49 1.81 109.8 93.9 0.0 0.0 68.65
2020-04-05 00:50 60.48 25.83 25.24 60.48 60.48 2.95 4.03 3.02 92.5 104.1 0.0 0.0 68.56
2020-04-05 00:55 60.04 25.7 24.75 60.04 60.04 2.06 3.67 2.57 17.2 71.2 0.0 0.0 68.47
2020-04-05 01:00 60.3 26.14 25.38 60.3 60.3 2.77 6.53 3.91 335.1 23.6 0.0 0.0 68.43
2020-04-05 01:05 60.17 24.45 23.67 60.17 60.17 2.06 6.17 3.31 288.3 20.3 0.0 0.0 68.34
2020-04-05 01:10 61.32 23.67 23.87 61.32 61.32 5.28 7.96 3.83 247.1 287.9 0.0 0.0 68.27
2020-04-05 01:15 61.14 23.74 23.79 61.14 61.14 0.0 8.86 3.27 289.5 214.8 0.0 0.0 68.2
2020-04-05 01:20 61.02 24.18 24.12 61.02 61.02 2.59 4.03 2.01 322.4 228.4 0.0 0.0 68.14
2020-04-05 01:25 60.66 24.45 24.08 60.66 60.66 0.0 5.64 1.74 111.2 279.2 0.0 0.0 68.07
2020-04-05 01:30 59.74 26.41 25.15 59.74 59.74 3.31 4.03 1.43 210.3 299.3 0.0 0.0 68.0
2020-04-05 01:35 59.31 26.51 24.87 59.31 59.31 1.16 2.95 0.81 271.6 179.6 0.0 0.0 67.93
2020-04-05 01:40 59.13 27.49 25.59 59.13 59.13 1.16 6.71 2.42 289.5 274.4 0.0 0.0 67.87
2020-04-05 01:45 58.82 26.44 24.39 58.82 58.82 0.0 1.88 0.45 169.0 299.0 0.0 0.0 67.8
2020-04-05 01:50 59.25 26.24 24.57 59.25 59.25 2.24 2.24 0.38 127.8 137.7 0.0 0.0 67.75
2020-04-05 01:55 58.95 27.49 25.43 58.95 58.95 2.06 2.77 0.56 12.9 22.4 0.0 0.0 67.66
2020-04-05 02:00 60.17 25.29 24.47 60.17 60.17 1.52 4.56 2.73 287.3 341.0 0.0 0.0 67.62
2020-04-05 02:05 59.56 26.34 24.93 59.56 59.56 3.49 3.67 2.82 315.0 6.2 0.0 0.0 67.57
2020-04-05 02:10 58.82 27.86 25.64 58.82 58.82 0.0 3.49 1.88 314.2 323.9 0.0 0.0 67.5
2020-04-05 02:15 58.41 28.84 26.12 58.41 58.41 2.77 3.67 2.46 309.0 314.6 0.0 0.0 67.44
2020-04-05 02:20 57.61 29.61 26.07 57.61 57.61 0.0 2.59 0.83 339.5 299.2 0.0 0.0 67.37
2020-04-05 02:25 57.36 29.61 25.85 57.36 57.36 0.0 1.34 0.31 101.6 99.7 0.0 0.0 67.32
2020-04-05 02:30 57.13 30.09 26.04 57.13 57.13 1.52 2.42 0.81 84.1 98.1 0.0 0.0 67.26
2020-04-05 02:35 56.77 29.78 25.47 56.77 56.77 3.67 4.74 2.3 110.8 100.1 0.0 0.0 67.17
2020-04-05 02:40 57.13 30.02 25.98 57.13 57.13 1.52 3.49 2.04 52.0 80.7 0.0 0.0 67.14
2020-04-05 02:45 57.38 30.53 26.61 57.38 57.38 4.92 5.1 3.51 280.0 24.2 0.0 0.0 67.06
2020-04-05 02:50 56.84 31.98 27.26 56.84 56.84 1.16 5.28 2.15 129.1 104.5 0.0 0.0 67.01
2020-04-05 02:55 56.66 30.43 25.9 56.66 56.66 2.59 3.49 1.95 18.8 4.0 0.0 0.0 66.97
2020-04-05 03:00 57.02 30.09 25.94 57.02 57.02 2.95 3.67 2.66 330.8 6.7 0.0 0.0 66.88
2020-04-05 03:05 56.05 31.51 26.21 56.05 56.05 0.0 3.13 1.28 281.6 309.5 0.0 0.0 66.85
2020-04-05 03:10 55.87 32.08 26.48 55.87 55.87 0.0 1.52 0.49 281.6 280.5 0.0 0.0 66.76
2020-04-05 03:15 55.44 33.37 27.06 55.44 55.44 0.0 0.81 0.02 144.1 325.5 0.0 0.0 66.72
2020-04-05 03:20 54.72 34.28 27.08 54.72 54.72 0.0 2.42 1.5 117.4 135.7 0.0 0.0 66.63
2020-04-05 03:25 53.98 35.63 27.36 53.98 53.98 0.0 0.0 0.0 169.0 0.0 0.0 0.0 66.6
2020-04-05 03:30 53.62 37.32 28.17 53.62 53.62 0.0 0.81 0.02 333.2 333.3 0.0 0.0 66.51
2020-04-05 03:35 53.38 36.44 27.38 53.38 53.38 1.88 2.06 0.36 127.3 127.2 0.0 0.0 66.47
2020-04-05 03:40 53.26 37.83 28.18 53.26 53.26 0.0 2.24 1.25 230.3 133.0 0.0 0.0 66.42
2020-04-05 03:45 52.77 38.64 28.26 52.77 52.77 0.0 0.81 0.02 279.2 329.7 0.0 0.0 66.34
2020-04-05 03:50 52.48 38.47 27.9 52.48 52.48 0.0 0.0 0.0 296.3 0.0 0.0 0.0 66.29
2020-04-05 03:55 52.29 38.81 27.93 52.29 52.29 0.0 0.81 0.02 293.1 300.3 0.0 0.0 66.22
2020-04-05 04:00 52.29 39.66 28.46 52.29 52.29 0.81 0.81 0.02 40.8 40.8 0.0 0.0 66.16
2020-04-05 04:05 51.93 41.38 29.17 51.93 51.93 2.59 2.59 0.74 191.2 183.1 0.0 0.0 66.09
2020-04-05 04:10 51.62 41.31 28.86 51.62 51.62 0.0 2.59 1.81 153.8 176.9 0.0 0.0 66.04
2020-04-05 04:15 51.26 42.16 29.03 51.26 51.26 0.0 0.0 0.0 110.3 0.0 0.0 0.0 65.98
2020-04-05 04:20 50.95 41.51 28.37 50.95 50.95 0.0 1.34 0.27 133.8 112.4 0.0 0.0 65.93
2020-04-05 04:25 51.08 41.72 28.61 51.08 51.08 1.34 1.34 0.07 274.1 268.9 0.0 0.0 65.86
2020-04-05 04:30 51.08 43.1 29.41 51.08 51.08 1.16 3.31 1.03 119.4 231.6 0.0 0.0 65.8
2020-04-05 04:35 50.9 43.14 29.27 50.9 50.9 0.0 2.06 0.69 87.9 119.8 0.0 0.0 65.75
2020-04-05 04:40 50.61 44.09 29.54 50.61 50.61 2.77 3.49 1.59 258.4 288.8 0.0 0.0 65.71
2020-04-05 04:45 50.43 44.26 29.47 50.43 50.43 2.06 5.28 2.68 295.6 275.1 0.0 0.0 65.62
2020-04-05 04:50 49.87 45.37 29.57 49.87 49.87 0.0 2.42 1.41 75.8 333.9 0.0 0.0 65.59
2020-04-05 04:55 50.0 42.84 28.28 50.0 50.0 2.06 2.06 0.83 4.2 312.3 0.0 0.0 65.5
2020-04-05 05:00 50.25 42.53 28.33 50.25 50.25 1.52 2.42 1.81 103.6 75.2 0.0 0.0 65.46
2020-04-05 05:05 50.74 41.93 28.42 50.74 50.74 2.42 4.21 1.83 43.8 55.4 0.0 0.0 65.39
2020-04-05 05:10 50.74 39.22 26.8 50.74 50.74 3.67 4.03 2.37 40.8 179.1 0.0 0.0 65.34
2020-04-05 05:15 51.71 40.24 28.3 51.71 51.71 0.0 4.03 1.77 27.1 79.7 0.0 0.0 65.28
2020-04-05 05:20 51.03 43.92 29.82 51.03 51.03 0.0 0.98 0.09 90.0 223.3 0.0 0.0 65.21
2020-04-05 05:25 50.54 42.97 28.84 50.54 50.54 1.7 1.7 0.09 141.2 141.2 0.0 0.0 65.16
2020-04-05 05:30 50.05 44.32 29.16 50.05 50.05 1.52 3.13 1.19 189.8 170.6 0.0 0.0 65.1
2020-04-05 05:35 49.95 43.48 28.59 49.95 49.95 0.98 5.28 2.35 90.0 216.2 0.0 0.0 65.05
2020-04-05 05:40 50.05 43.85 28.9 50.05 50.05 0.81 4.03 1.92 225.3 148.6 0.0 0.0 64.98
2020-04-05 05:45 49.64 45.84 29.61 49.64 49.64 1.16 3.31 1.7 173.6 121.0 0.0 0.0 64.94
2020-04-05 05:50 49.75 46.39 30.0 49.75 49.75 1.16 2.24 1.43 120.5 178.2 0.0 0.0 64.87
2020-04-05 05:55 49.33 47.06 29.97 49.33 49.33 0.0 0.98 0.16 126.5 140.3 0.0 0.0 64.81
2020-04-05 06:00 48.67 46.76 29.21 48.67 48.67 0.0 2.42 0.38 313.2 277.8 0.0 0.0 64.76
2020-04-05 06:05 48.97 46.25 29.22 48.97 48.97 2.06 2.24 1.05 106.4 61.7 0.0 0.0 64.69
2020-04-05 06:10 49.15 47.77 30.18 49.15 49.15 0.0 3.31 1.28 262.5 186.0 0.0 0.0 64.65
2020-04-05 06:15 49.39 46.96 29.97 49.39 49.39 1.16 1.7 0.56 317.6 314.7 0.0 0.0 64.58
2020-04-05 06:20 49.15 48.18 30.39 49.15 49.15 0.0 0.98 0.09 195.4 316.4 0.0 0.0 64.54
2020-04-05 06:25 49.03 48.14 30.25 49.03 49.03 0.0 0.0 0.0 129.9 0.0 0.0 0.0 64.49
2020-04-05 06:30 48.72 48.24 30.02 48.72 48.72 0.0 0.0 0.0 165.8 0.0 0.0 0.0 64.42
2020-04-05 06:35 48.67 49.53 30.62 48.67 48.67 0.0 1.7 0.4 126.4 172.1 0.0 0.0 64.38
2020-04-05 06:40 48.18 50.0 30.41 48.18 48.18 0.0 0.0 0.0 130.2 0.0 0.0 0.0 64.31
2020-04-05 06:45 48.24 49.86 30.39 48.24 48.24 0.0 1.52 0.4 92.1 159.0 0.0 0.0 64.26
2020-04-05 06:50 48.36 50.47 30.8 48.36 48.36 0.0 1.34 0.27 191.2 120.0 0.0 0.001 64.22
2020-04-05 06:55 48.11 50.81 30.74 48.11 48.11 0.0 0.0 0.0 191.5 0.0 0.0 0.002 64.17
2020-04-05 07:00 47.8 51.66 30.86 47.8 47.8 0.81 0.81 0.02 211.2 211.2 0.0 0.004 64.09
2020-04-05 07:05 48.11 52.23 31.42 48.11 48.11 0.0 2.95 0.96 72.8 189.1 0.0 0.006 64.06
2020-04-05 07:10 48.29 52.13 31.54 48.29 48.29 1.16 1.16 0.22 88.6 99.8 0.0 0.009 64.02
2020-04-05 07:15 48.49 52.47 31.88 48.49 48.49 0.0 0.0 0.0 192.1 0.0 0.0 0.012 63.95
2020-04-05 07:20 48.9 52.06 32.07 48.9 48.9 0.81 1.34 0.49 207.1 215.8 0.0 0.015 63.9
2020-04-05 07:25 49.33 50.03 31.48 49.33 49.33 1.88 2.24 1.59 196.7 185.3 0.0 0.019 63.86
2020-04-05 07:30 50.0 50.03 32.1 50.0 50.0 2.24 2.59 1.81 183.8 185.1 0.0 0.035 63.81
2020-04-05 07:35 50.25 49.86 32.25 50.25 50.25 1.7 2.59 2.01 201.5 191.5 0.0 0.037 63.77
2020-04-05 07:40 50.54 51.62 33.38 50.54 50.54 2.24 2.95 1.99 230.8 195.8 0.0 0.037 63.72
2020-04-05 07:45 51.03 50.68 33.37 51.03 51.03 1.7 2.06 1.48 168.7 195.6 0.0 0.045 63.68
2020-04-05 07:50 51.51 47.09 31.99 51.51 51.51 1.88 2.42 1.72 170.4 174.5 0.0 0.051 63.63
2020-04-05 07:55 52.0 46.62 32.18 52.0 52.0 2.06 2.95 2.04 179.6 187.0 0.0 0.056 63.57
2020-04-05 08:00 52.68 46.45 32.72 52.68 52.68 0.81 2.77 1.63 146.2 175.6 0.0 0.063 63.54
2020-04-05 08:05 53.76 45.3 33.08 53.76 53.76 2.06 2.06 1.5 210.1 194.3 0.0 0.067 63.48
2020-04-05 08:10 54.43 44.08 33.0 54.43 54.43 1.34 2.24 1.19 180.9 194.3 0.0 0.066 63.45
2020-04-05 08:15 55.4 41.08 32.13 55.4 55.4 2.59 2.59 0.83 229.8 195.5 0.0 0.075 63.41
2020-04-05 08:20 56.37 41.11 33.02 56.37 56.37 1.34 2.59 1.39 151.8 192.3 0.0 0.08 63.37
2020-04-05 08:25 56.73 39.99 32.66 56.73 56.73 0.0 1.88 1.28 197.6 178.1 0.0 0.077 63.34
2020-04-05 08:30 57.52 36.44 31.06 57.52 57.52 1.16 2.95 1.7 154.0 170.3 0.0 0.089 63.32
2020-04-05 08:35 57.76 35.06 30.32 57.76 57.76 1.88 2.24 1.25 186.8 181.5 0.0 0.095 63.28
2020-04-05 08:40 58.66 34.18 30.49 58.66 58.66 0.81 3.31 1.95 162.1 168.1 0.0 0.103 63.27
2020-04-05 08:45 59.07 32.45 29.57 59.07 59.07 2.24 4.03 2.06 172.6 168.5 0.0 0.108 63.27
2020-04-05 08:50 60.04 31.94 30.03 60.04 60.04 2.42 2.42 1.05 122.4 183.1 0.0 0.114 63.27
2020-04-05 08:55 60.15 30.93 29.34 60.15 60.15 2.06 3.13 2.19 114.4 123.7 0.0 0.119 63.27
2020-04-05 09:00 61.0 30.35 29.61 61.0 61.0 2.06 3.67 1.41 173.2 141.5 0.0 0.125 63.27
2020-04-05 09:05 60.94 31.37 30.38 60.94 60.94 1.88 2.59 1.77 229.4 172.3 0.0 0.121 63.25
2020-04-05 09:10 61.54 31.23 30.79 61.54 61.54 4.03 4.03 2.06 233.2 202.7 0.0 0.132 63.25
2020-04-05 09:15 61.59 30.75 30.45 61.59 61.59 0.0 4.92 2.42 341.6 230.0 0.0 0.141 63.28
2020-04-05 09:20 61.16 32.81 31.68 61.16 61.16 4.21 8.48 4.05 270.4 268.4 0.0 0.139 63.27
2020-04-05 09:25 60.85 30.99 30.0 60.85 60.85 2.59 5.64 3.51 202.3 235.6 0.0 0.143 63.3
2020-04-05 09:30 61.41 31.19 30.64 61.41 61.41 1.7 2.95 2.24 278.2 244.5 0.0 0.155 63.34
2020-04-05 09:35 61.9 30.31 30.36 61.9 61.9 1.34 3.13 1.63 210.8 235.2 0.0 0.159 63.34
2020-04-05 09:40 62.69 30.51 31.21 62.69 62.69 2.95 4.03 2.24 209.6 230.3 0.0 0.163 63.41
2020-04-05 09:45 63.28 29.16 30.61 63.28 63.28 5.1 6.89 3.85 223.9 233.9 0.0 0.165 63.46
2020-04-05 09:50 63.16 29.33 30.65 63.16 63.16 4.74 5.82 3.96 254.6 237.9 0.0 0.172 63.48
2020-04-05 09:55 63.57 28.62 30.4 63.57 63.57 3.31 7.61 3.56 226.9 243.0 0.0 0.172 63.55
2020-04-05 10:00 64.06 28.72 30.91 64.06 64.06 2.59 6.71 4.36 287.5 242.3 0.0 0.177 63.61
2020-04-05 10:05 64.47 27.03 29.77 64.47 64.47 7.43 7.43 4.3 184.3 256.3 0.0 0.184 63.68
2020-04-05 10:10 64.47 29.12 31.61 64.47 64.47 4.21 6.89 4.59 187.6 217.0 0.0 0.19 63.75
2020-04-05 10:15 65.08 25.38 28.75 65.08 65.08 4.21 6.0 3.62 208.3 236.9 0.0 0.196 63.84
2020-04-05 10:20 65.01 25.54 28.84 65.01 65.01 3.31 8.3 5.17 206.3 227.7 0.0 0.204 63.91
2020-04-05 10:25 65.44 24.46 28.15 65.44 65.44 6.35 6.89 4.81 250.8 244.1 0.0 0.208 64.04
2020-04-05 10:30 66.24 23.49 27.84 66.24 66.24 3.31 7.61 4.25 251.9 239.2 0.0 0.21 64.11
2020-04-05 10:35 66.06 25.54 29.73 66.06 66.06 4.21 7.61 4.59 297.5 245.5 0.0 0.215 64.18
2020-04-05 10:40 66.65 23.18 27.86 66.65 66.65 4.56 8.86 5.53 225.6 248.3 0.0 0.221 64.31
2020-04-05 10:45 66.7 21.8 26.42 66.7 66.7 2.24 7.25 4.65 264.2 274.8 0.0 0.227 64.44
2020-04-05 10:50 67.06 20.58 25.33 67.06 67.06 8.3 8.3 4.97 250.0 257.4 0.0 0.228 64.54
2020-04-05 10:55 66.69 22.16 26.8 66.69 66.69 1.16 7.61 4.59 198.3 239.9 0.0 0.229 64.65
2020-04-05 11:00 66.63 21.46 25.98 66.63 66.63 8.3 9.73 5.79 234.6 259.4 0.0 0.235 64.76
2020-04-05 11:05 66.94 21.59 26.38 66.94 66.94 1.52 9.04 5.55 259.5 224.4 0.0 0.233 64.9

Data is courtesy of the NM Climate Center. DO NOT USE IN LEGAL PROCEEDINGS.